Current | Forecast
Updated: 10:30 AM JST on October 19, 2017
Observed at Naha City, Japan
Temperature 81°F
Humidity 89%
Dew Point 77°F
Wind North at 5 mph
Pressure 29.80 in (Steady)
Conditions Light Rain Showers
Visibility 6.2 miles
UV 5 out of 16
Clouds (FEW) : 1500 ft
Scattered Clouds (SCT) : 3000 ft
Mostly Cloudy (BKN) : 4000 ft
Yesterday's Maximum 88°F
Yesterday's Minimum 79°F approx.
Yesterday's Cooling Degree Days 18 approx.
Sunrise6:31 AM JST
Sunset5:59 PM JST
Moon Rise5:45 AM JST
Moon Set5:54 PM JST
Moon PhaseMoon Phase
Waning Crescent
Raw METARMETAR ROAH 190130Z 36004KT 340V060 9999 -SHRA FEW015 SCT030 BKN040 27/25 Q1009 RMK 1CU015 3CU030 5SC040 A2981


Monday
. High: 78° F.
Tuesday
. High: 77° F.
Wednesday
. High: 77° F.
Thursday
. High: 78° F.
Friday
. High: 78° F.
Saturday
. High: 78° F.
Sunday
. High: 80° F.
Monday
. High: 78° F.

Units: English | Metric

Find the Weather for any City, State or Zipcode, or Country:

U.S. State List | Severe Weather | Tropical Storms | Ski Conditions
United States | Canada | Central America | South America | Asia | Europe | Australia | Africa | Islands

Weather Underground

© Copyright 2017
The Weather Company, LLC